< < Back
Terminal Aerodrome Forecast


Current Version              Previous Versions:   1  2  3  4  5  6  7  8  9  

Terminal Aerodrome Forecast

266
FTUS42 KTAE 231100
TAFDHN
TAF
KDHN 231133Z 2312/2412 10008KT 4SM -RA BR OVC005
     FM231500 16010G15KT 6SM -RA OVC007
     FM231800 18013G23KT 4SM TSRA BKN025CB
      TEMPO 2318/2321 VRB20G30KT 2SM +TSRA
     FM240000 20011KT P6SM OVC007=

Latest METAR

779
SAUS70 KWBC 231400 RRD
MTRDHN
METAR KDHN 231353Z 11008KT 2 1/2SM -RA BR OVC003 17/17 A2991 RMK AO2 LTG
DSNT SW RAB08E23B41 SLP125 P0001 T01720167


USA.gov is the U.S. government's official web portal to all federal, state and local government web resources and services.